Haines City, FL

1:40 PM EST on December 09, 2016 (GMT -0500)
Grenelefe Florida Landscapes | | Change Station

Elev 118 ft 28.07 °N, 81.55 °W | Updated 3 seconds ago

Partly Cloudy
Partly Cloudy
56.9 °F
Feels Like 56.9 °F
N
8.0
Wind Variable Wind from South

Today
High -- | Low -- °F
--% Chance of Precip.
Yesterday
High -- | Low -- °F
Precip. -- in
Pressure 30.30 in
Visibility 10.0 miles
Clouds Clear
Dew Point 45 °F
Humidity 65%
Rainfall 0.00 in
Snow Depth Not available.
7:06 AM 5:31 PM
Waxing Gibbous, 76% visible
METAR KGIF 091753Z AUTO 02009KT 10SM CLR 14/06 A3030 RMK AO2 SLP259 60001 T01390056 10144 20106 58013
Pressure 30.30 in
Visibility 10.0 miles
Clouds Clear
Dew Point 45 °F
Humidity 65%
Rainfall 0.00 in
Snow Depth Not available.
7:06 AM 5:31 PM
Waxing Gibbous, 76% visible
METAR KGIF 091753Z AUTO 02009KT 10SM CLR 14/06 A3030 RMK AO2 SLP259 60001 T01390056 10144 20106 58013

10-Day Weather Forecast

Almanac

Astronomy

Dec. 09, 2016 Rise Set
Actual Time
Civil Twilight
Nautical Twilight
Astronomical Twilight
Moon
Length of Visible Light
Length of Day
Tomorrow will be .
, % of the Moon is Illuminated

Today's Extremes

State Highs State Lows

Community

WunderPhotos

Upload Photos

1,956,499 photos uploaded!

WunderBlog® & News

Nearby

Air Quality

  Air Quality AQ Index Pollutant
Not available.

Snow Depth

Station Depth Elevation

Earthquake Activity

City Distance Mag. Time & Date
Minimum magnitude displayed is 2.5.

Coastal Water Temperatures

Place Temperature

Stations

Nearby Weather Stations

Station Location Temp. Windchill Dew Point Humidity Wind Precip. Elev Updated Type
                   

Watches & Warnings

There are currently no watches in effect.